Time,TemperatureF,DewpointF,PressureIn,WindDirection,WindDirectionDegrees,WindSpeedMPH,WindSpeedGustMPH,Humidity,HourlyPrecipIn,Conditions,Clouds,dailyrainin,SolarRadiationWatts/m^2,SoftwareType,DateUTC
2013-09-20 00:22:00,58.0,57.0,29.83,NE,40,8.0,11.0,97,0.00,,,0.00,0.000000,,2013-09-20 07:22:00,
2013-09-20 00:32:00,58.0,57.0,29.83,NE,40,8.0,11.0,97,0.00,,,0.00,0.000000,,2013-09-20 07:32:00,
2013-09-20 00:42:00,58.0,57.0,29.83,NE,40,8.0,11.0,97,0.00,,,0.00,0.000000,,2013-09-20 07:42:00,
2013-09-20 00:52:00,58.0,57.0,29.83,NE,40,8.0,11.0,97,0.00,,,0.00,0.000000,,2013-09-20 07:52:00,
2013-09-20 01:22:00,59.0,58.0,29.83,NE,37,8.0,13.0,97,0.00,,,0.00,0.000000,,2013-09-20 08:22:00,
2013-09-20 01:32:00,59.0,58.0,29.83,NE,37,8.0,13.0,97,0.00,,,0.00,0.000000,,2013-09-20 08:32:00,
2013-09-20 01:42:00,59.0,58.0,29.83,NE,37,8.0,13.0,97,0.00,,,0.00,0.000000,,2013-09-20 08:42:00,
2013-09-20 01:52:00,59.0,58.0,29.83,NE,37,8.0,13.0,97,0.00,,,0.00,0.000000,,2013-09-20 08:52:00,
2013-09-20 02:22:00,59.0,58.0,29.83,NE,34,8.0,12.0,98,0.00,,,0.00,0.000000,,2013-09-20 09:22:00,
2013-09-20 02:33:00,59.0,58.0,29.83,NE,34,8.0,12.0,98,0.00,,,0.00,0.000000,,2013-09-20 09:33:00,
2013-09-20 02:43:00,59.0,58.0,29.83,NE,34,8.0,12.0,98,0.00,,,0.00,0.000000,,2013-09-20 09:43:00,
2013-09-20 02:53:00,59.0,58.0,29.83,NE,34,8.0,12.0,98,0.00,,,0.00,0.000000,,2013-09-20 09:53:00,
2013-09-20 03:23:00,59.0,58.0,29.83,NNW,331,7.0,10.0,98,0.00,,,0.00,0.000000,,2013-09-20 10:23:00,
2013-09-20 03:32:00,59.0,58.0,29.83,NNW,331,7.0,10.0,98,0.00,,,0.00,0.000000,,2013-09-20 10:32:00,
2013-09-20 03:42:00,59.0,58.0,29.83,NNW,331,7.0,10.0,98,0.00,,,0.00,0.000000,,2013-09-20 10:42:00,
2013-09-20 03:53:00,59.0,58.0,29.83,NNW,331,7.0,10.0,98,0.00,,,0.00,0.000000,,2013-09-20 10:53:00,
2013-09-20 04:23:00,59.0,58.0,29.83,NNE,28,7.0,12.0,98,0.00,,,0.00,0.000000,,2013-09-20 11:23:00,
2013-09-20 04:33:00,59.0,58.0,29.83,NNE,28,7.0,12.0,98,0.00,,,0.00,0.000000,,2013-09-20 11:33:00,
2013-09-20 04:42:00,59.0,58.0,29.83,NNE,28,7.0,12.0,98,0.00,,,0.00,0.000000,,2013-09-20 11:42:00,
2013-09-20 04:52:00,59.0,58.0,29.83,NNE,28,7.0,12.0,98,0.00,,,0.00,0.000000,,2013-09-20 11:52:00,
2013-09-20 05:22:00,59.0,58.0,29.83,NNE,17,5.0,12.0,98,0.00,,,0.00,0.000000,,2013-09-20 12:22:00,
2013-09-20 05:32:00,59.0,58.0,29.83,NNE,17,5.0,12.0,98,0.00,,,0.00,0.000000,,2013-09-20 12:32:00,
2013-09-20 05:42:00,59.0,58.0,29.83,NNE,17,5.0,12.0,98,0.00,,,0.00,0.000000,,2013-09-20 12:42:00,
2013-09-20 05:52:00,59.0,58.0,29.83,NNE,17,5.0,12.0,98,0.00,,,0.00,0.000000,,2013-09-20 12:52:00,
2013-09-20 06:21:00,59.0,58.0,29.83,North,1,3.0,11.0,98,0.00,,,0.00,0.000000,,2013-09-20 13:21:00,
2013-09-20 06:32:00,59.0,58.0,29.83,North,1,3.0,11.0,98,0.00,,,0.00,0.000000,,2013-09-20 13:32:00,
2013-09-20 06:42:00,59.0,58.0,29.83,North,1,3.0,11.0,98,0.00,,,0.00,0.000000,,2013-09-20 13:42:00,
2013-09-20 06:52:00,59.0,58.0,29.83,North,1,3.0,11.0,98,0.00,,,0.00,0.000000,,2013-09-20 13:52:00,
2013-09-20 07:21:00,59.0,58.0,29.83,NE,40,8.0,12.0,98,0.00,,,0.00,0.000000,,2013-09-20 14:21:00,
2013-09-20 07:32:00,59.0,58.0,29.83,NE,40,8.0,12.0,98,0.00,,,0.00,0.000000,,2013-09-20 14:32:00,
2013-09-20 07:42:00,59.0,58.0,29.83,NE,40,8.0,12.0,98,0.00,,,0.00,0.000000,,2013-09-20 14:42:00,
2013-09-20 07:52:00,59.0,58.0,29.83,NE,40,8.0,12.0,98,0.00,,,0.00,0.000000,,2013-09-20 14:52:00,
2013-09-20 08:21:00,58.0,57.0,29.85,NNE,27,7.0,13.0,98,0.00,,,0.00,0.000000,,2013-09-20 15:21:00,
2013-09-20 08:33:00,58.0,57.0,29.85,NNE,27,7.0,13.0,98,0.00,,,0.00,0.000000,,2013-09-20 15:33:00,
2013-09-20 08:44:00,58.0,57.0,29.85,NNE,27,7.0,13.0,98,0.00,,,0.00,0.000000,,2013-09-20 15:44:00,
2013-09-20 08:53:00,58.0,57.0,29.85,NNE,27,7.0,13.0,98,0.00,,,0.00,0.000000,,2013-09-20 15:53:00,
2013-09-20 09:23:00,60.0,59.0,29.86,NE,48,9.0,14.0,98,0.00,,,0.00,24.000000,,2013-09-20 16:23:00,
2013-09-20 09:42:00,60.0,59.0,29.86,NE,48,9.0,14.0,98,0.00,,,0.00,24.000000,,2013-09-20 16:42:00,
2013-09-20 09:52:00,60.0,59.0,29.86,NE,48,9.0,14.0,98,0.00,,,0.00,24.000000,,2013-09-20 16:52:00,
2013-09-20 10:23:00,59.0,58.0,29.87,NE,42,7.0,13.0,97,0.00,,,0.00,69.000000,,2013-09-20 17:23:00,
2013-09-20 10:34:00,59.0,58.0,29.87,NE,42,7.0,13.0,97,0.00,,,0.00,69.000000,,2013-09-20 17:34:00,
2013-09-20 10:42:00,59.0,58.0,29.87,NE,42,7.0,13.0,97,0.00,,,0.00,69.000000,,2013-09-20 17:42:00,
2013-09-20 10:53:00,59.0,58.0,29.87,NE,42,7.0,13.0,97,0.00,,,0.00,69.000000,,2013-09-20 17:53:00,
2013-09-20 11:22:00,62.0,60.0,29.88,NE,45,7.0,11.0,93,0.00,,,0.00,114.000000,,2013-09-20 18:22:00,
2013-09-20 11:32:00,62.0,60.0,29.88,NE,45,7.0,11.0,93,0.00,,,0.00,114.000000,,2013-09-20 18:32:00,
2013-09-20 11:42:00,62.0,60.0,29.88,NE,45,7.0,11.0,93,0.00,,,0.00,114.000000,,2013-09-20 18:42:00,
2013-09-20 11:52:00,62.0,60.0,29.88,NE,45,7.0,11.0,93,0.00,,,0.00,114.000000,,2013-09-20 18:52:00,
2013-09-20 12:22:00,61.0,58.0,29.90,NNE,24,6.0,14.0,91,0.00,,,0.00,161.000000,,2013-09-20 19:22:00,
2013-09-20 12:32:00,61.0,58.0,29.90,NNE,24,6.0,14.0,91,0.00,,,0.00,161.000000,,2013-09-20 19:32:00,
2013-09-20 12:42:00,61.0,58.0,29.90,NNE,24,6.0,14.0,91,0.00,,,0.00,161.000000,,2013-09-20 19:42:00,
2013-09-20 12:52:00,61.0,58.0,29.90,NNE,24,6.0,14.0,91,0.00,,,0.00,161.000000,,2013-09-20 19:52:00,
2013-09-20 13:22:00,64.0,60.0,29.89,NE,55,6.0,11.0,88,0.00,,,0.00,239.000000,,2013-09-20 20:22:00,
2013-09-20 13:32:00,64.0,60.0,29.89,NE,55,6.0,11.0,88,0.00,,,0.00,239.000000,,2013-09-20 20:32:00,
2013-09-20 13:42:00,64.0,60.0,29.89,NE,55,6.0,11.0,88,0.00,,,0.00,239.000000,,2013-09-20 20:42:00,
2013-09-20 13:52:00,64.0,60.0,29.89,NE,55,6.0,11.0,88,0.00,,,0.00,239.000000,,2013-09-20 20:52:00,
2013-09-20 14:21:00,64.0,60.0,29.89,ENE,58,6.0,12.0,86,0.00,,,0.00,259.000000,,2013-09-20 21:21:00,
2013-09-20 14:34:00,64.0,60.0,29.89,ENE,58,6.0,12.0,86,0.00,,,0.00,259.000000,,2013-09-20 21:34:00,
2013-09-20 14:44:00,64.0,60.0,29.89,ENE,58,6.0,12.0,86,0.00,,,0.00,259.000000,,2013-09-20 21:44:00,
2013-09-20 14:54:00,64.0,60.0,29.89,ENE,58,6.0,12.0,86,0.00,,,0.00,259.000000,,2013-09-20 21:54:00,
2013-09-20 15:23:00,66.0,60.0,29.88,NE,51,6.0,13.0,82,0.00,,,0.00,391.000000,,2013-09-20 22:23:00,
2013-09-20 15:33:00,66.0,60.0,29.88,NE,51,6.0,13.0,82,0.00,,,0.00,391.000000,,2013-09-20 22:33:00,
2013-09-20 15:43:00,66.0,60.0,29.88,NE,51,6.0,13.0,82,0.00,,,0.00,391.000000,,2013-09-20 22:43:00,
2013-09-20 15:53:00,66.0,60.0,29.88,NE,51,6.0,13.0,82,0.00,,,0.00,391.000000,,2013-09-20 22:53:00,
2013-09-20 16:22:00,65.0,58.0,29.88,North,2,7.0,12.0,79,0.00,,,0.00,366.000000,,2013-09-20 23:22:00,
2013-09-20 16:34:00,65.0,58.0,29.88,North,2,7.0,12.0,79,0.00,,,0.00,366.000000,,2013-09-20 23:34:00,
2013-09-20 16:42:00,65.0,58.0,29.88,North,2,7.0,12.0,79,0.00,,,0.00,366.000000,,2013-09-20 23:42:00,
2013-09-20 16:53:00,65.0,58.0,29.88,North,2,7.0,12.0,79,0.00,,,0.00,366.000000,,2013-09-20 23:53:00,
2013-09-20 17:21:00,67.0,59.0,29.87,NE,44,6.0,11.0,76,0.00,,,0.00,397.000000,,2013-09-21 00:21:00,
2013-09-20 17:32:00,67.0,59.0,29.87,NE,44,6.0,11.0,76,0.00,,,0.00,397.000000,,2013-09-21 00:32:00,
2013-09-20 17:42:00,67.0,59.0,29.87,NE,44,6.0,11.0,76,0.00,,,0.00,397.000000,,2013-09-21 00:42:00,
2013-09-20 17:52:00,67.0,59.0,29.87,NE,44,6.0,11.0,76,0.00,,,0.00,397.000000,,2013-09-21 00:52:00,
2013-09-20 18:22:00,64.0,57.0,29.86,NE,51,6.0,11.0,78,0.00,,,0.00,267.000000,,2013-09-21 01:22:00,
2013-09-20 18:32:00,64.0,57.0,29.86,NE,51,6.0,11.0,78,0.00,,,0.00,267.000000,,2013-09-21 01:32:00,
2013-09-20 18:42:00,64.0,57.0,29.86,NE,51,6.0,11.0,78,0.00,,,0.00,267.000000,,2013-09-21 01:42:00,
2013-09-20 18:52:00,64.0,57.0,29.86,NE,51,6.0,11.0,78,0.00,,,0.00,267.000000,,2013-09-21 01:52:00,
2013-09-20 19:22:00,62.0,56.0,29.85,West,263,7.0,10.0,82,0.00,,,0.00,157.000000,,2013-09-21 02:22:00,
2013-09-20 19:32:00,62.0,56.0,29.85,West,263,7.0,10.0,82,0.00,,,0.00,157.000000,,2013-09-21 02:32:00,
2013-09-20 19:42:00,62.0,56.0,29.85,West,263,7.0,10.0,82,0.00,,,0.00,157.000000,,2013-09-21 02:42:00,
2013-09-20 19:52:00,62.0,56.0,29.85,West,263,7.0,10.0,82,0.00,,,0.00,157.000000,,2013-09-21 02:52:00,
2013-09-20 20:22:00,60.0,57.0,29.86,South,180,7.0,10.0,89,0.00,,,0.00,37.000000,,2013-09-21 03:22:00,
2013-09-20 20:34:00,60.0,57.0,29.86,South,180,7.0,10.0,89,0.00,,,0.00,37.000000,,2013-09-21 03:34:00,
2013-09-20 20:44:00,60.0,57.0,29.86,South,180,7.0,10.0,89,0.00,,,0.00,37.000000,,2013-09-21 03:44:00,
2013-09-20 20:54:00,60.0,57.0,29.86,South,180,7.0,10.0,89,0.00,,,0.00,37.000000,,2013-09-21 03:54:00,
2013-09-20 21:24:00,61.0,58.0,29.87,NE,37,7.0,10.0,91,0.00,,,0.00,0.000000,,2013-09-21 04:24:00,
2013-09-20 21:33:00,61.0,58.0,29.87,NE,37,7.0,10.0,91,0.00,,,0.00,0.000000,,2013-09-21 04:33:00,
2013-09-20 21:43:00,61.0,58.0,29.87,NE,37,7.0,10.0,91,0.00,,,0.00,0.000000,,2013-09-21 04:43:00,
2013-09-20 21:54:00,61.0,58.0,29.87,NE,37,7.0,10.0,91,0.00,,,0.00,0.000000,,2013-09-21 04:54:00,
2013-09-20 22:23:00,60.0,57.0,29.88,NNW,345,7.0,14.0,89,0.00,,,0.00,0.000000,,2013-09-21 05:23:00,
2013-09-20 22:34:00,60.0,57.0,29.88,NNW,345,7.0,14.0,89,0.00,,,0.00,0.000000,,2013-09-21 05:34:00,
2013-09-20 22:43:00,60.0,57.0,29.88,NNW,345,7.0,14.0,89,0.00,,,0.00,0.000000,,2013-09-21 05:43:00,
2013-09-20 22:52:00,60.0,57.0,29.88,NNW,345,7.0,14.0,89,0.00,,,0.00,0.000000,,2013-09-21 05:52:00,
2013-09-20 23:22:00,61.0,58.0,29.89,NNW,331,9.0,13.0,90,0.00,,,0.00,0.000000,,2013-09-21 06:22:00,
2013-09-20 23:32:00,61.0,58.0,29.89,NNW,331,9.0,13.0,90,0.00,,,0.00,0.000000,,2013-09-21 06:32:00,
2013-09-20 23:42:00,61.0,58.0,29.89,NNW,331,9.0,13.0,90,0.00,,,0.00,0.000000,,2013-09-21 06:42:00,
2013-09-20 23:52:00,61.0,58.0,29.89,NNW,331,9.0,13.0,90,0.00,,,0.00,0.000000,,2013-09-21 06:52:00,